Bixby, Minnesota
Current Conditions -  °F | °C
As of 6:53 AM on Monday 22 Dec 2014 (Local Time) from KTOB Reporting Station
Drizzle Drizzle  
Wind Chill: 25°   Ceiling: 300
Heat Index: 36°   Visibility: 1.7mi
Dew Point: 36°   Wind: 18mph
Humidity: 100%   Direction: 150°SSE
Pressure: 29.67"   Gusts: NA
Location:  43.9356°N, 93.0454°W
Report Text: KTOB 221253Z AUTO 15016KT 1 3/4SM DZ OVC003 02/02 A2967 RMK AO2
Loading
Personal Weather Stations






























Interactive Weather Map New forecast layout! Learn more

10-Day Weather Forecast

Advertisements
Track Severe Weather on mobile